sensor_id;sensor_type;location;lat;lon;timestamp;temperature;humidity
78475;SHT31;67766;51.964;5.660;2023-04-01T00:01:54;11.2;83.8
78475;SHT31;67766;51.964;5.660;2023-04-01T00:04:24;11.3;83.5
78475;SHT31;67766;51.964;5.660;2023-04-01T00:06:54;11.3;83.5
78475;SHT31;67766;51.964;5.660;2023-04-01T00:09:24;11.3;83.3
78475;SHT31;67766;51.964;5.660;2023-04-01T00:11:53;11.3;83.2
78475;SHT31;67766;51.964;5.660;2023-04-01T00:14:23;11.4;83.0
78475;SHT31;67766;51.964;5.660;2023-04-01T00:16:52;11.4;82.9
78475;SHT31;67766;51.964;5.660;2023-04-01T00:19:22;11.4;82.7
78475;SHT31;67766;51.964;5.660;2023-04-01T00:21:54;11.4;82.8
78475;SHT31;67766;51.964;5.660;2023-04-01T00:24:24;11.4;82.9
78475;SHT31;67766;51.964;5.660;2023-04-01T00:26:54;11.5;83.0
78475;SHT31;67766;51.964;5.660;2023-04-01T00:29:26;11.5;82.7
78475;SHT31;67766;51.964;5.660;2023-04-01T00:31:57;11.6;82.4
78475;SHT31;67766;51.964;5.660;2023-04-01T00:34:28;11.6;82.5
78475;SHT31;67766;51.964;5.660;2023-04-01T00:36:57;11.6;81.8
78475;SHT31;67766;51.964;5.660;2023-04-01T00:39:28;11.7;81.6
78475;SHT31;67766;51.964;5.660;2023-04-01T00:41:58;11.7;81.5
78475;SHT31;67766;51.964;5.660;2023-04-01T00:44:30;11.8;81.3
78475;SHT31;67766;51.964;5.660;2023-04-01T00:47:00;11.8;81.5
78475;SHT31;67766;51.964;5.660;2023-04-01T00:49:33;11.9;81.1
78475;SHT31;67766;51.964;5.660;2023-04-01T00:52:08;11.9;80.8
78475;SHT31;67766;51.964;5.660;2023-04-01T00:54:41;11.9;80.8
78475;SHT31;67766;51.964;5.660;2023-04-01T00:57:15;12.0;80.5
78475;SHT31;67766;51.964;5.660;2023-04-01T00:59:50;12.0;80.3
78475;SHT31;67766;51.964;5.660;2023-04-01T01:02:21;12.1;80.3
78475;SHT31;67766;51.964;5.660;2023-04-01T01:04:53;12.1;80.1
78475;SHT31;67766;51.964;5.660;2023-04-01T01:07:31;12.2;79.7
78475;SHT31;67766;51.964;5.660;2023-04-01T01:10:13;12.2;79.6
78475;SHT31;67766;51.964;5.660;2023-04-01T01:12:48;12.3;79.3
78475;SHT31;67766;51.964;5.660;2023-04-01T01:15:25;12.3;79.4
78475;SHT31;67766;51.964;5.660;2023-04-01T01:18:05;12.3;79.3
78475;SHT31;67766;51.964;5.660;2023-04-01T01:21:32;12.4;79.1
78475;SHT31;67766;51.964;5.660;2023-04-01T01:24:35;12.4;78.8
78475;SHT31;67766;51.964;5.660;2023-04-01T01:27:10;12.4;78.3
78475;SHT31;67766;51.964;5.660;2023-04-01T01:32:52;12.5;77.1
78475;SHT31;67766;51.964;5.660;2023-04-01T01:35:28;12.5;76.9
78475;SHT31;67766;51.964;5.660;2023-04-01T01:38:03;12.5;76.1
78475;SHT31;67766;51.964;5.660;2023-04-01T01:40:36;12.5;75.7
78475;SHT31;67766;51.964;5.660;2023-04-01T01:43:09;12.5;76.1
78475;SHT31;67766;51.964;5.660;2023-04-01T01:45:44;12.5;75.9
78475;SHT31;67766;51.964;5.660;2023-04-01T01:48:16;12.4;75.9
78475;SHT31;67766;51.964;5.660;2023-04-01T01:50:48;12.4;75.7
78475;SHT31;67766;51.964;5.660;2023-04-01T01:53:18;12.4;75.3
78475;SHT31;67766;51.964;5.660;2023-04-01T01:55:48;12.4;75.7
78475;SHT31;67766;51.964;5.660;2023-04-01T01:58:23;12.4;75.9
78475;SHT31;67766;51.964;5.660;2023-04-01T02:00:57;12.4;75.5
78475;SHT31;67766;51.964;5.660;2023-04-01T02:03:33;12.4;76.0
78475;SHT31;67766;51.964;5.660;2023-04-01T02:06:07;12.5;76.0
78475;SHT31;67766;51.964;5.660;2023-04-01T02:08:42;12.5;76.3
78475;SHT31;67766;51.964;5.660;2023-04-01T02:11:16;12.5;76.3
78475;SHT31;67766;51.964;5.660;2023-04-01T02:13:51;12.5;76.4
78475;SHT31;67766;51.964;5.660;2023-04-01T02:16:26;12.5;76.2
78475;SHT31;67766;51.964;5.660;2023-04-01T02:18:59;12.5;76.3
78475;SHT31;67766;51.964;5.660;2023-04-01T02:21:32;12.4;76.5
78475;SHT31;67766;51.964;5.660;2023-04-01T02:24:07;12.4;76.2
78475;SHT31;67766;51.964;5.660;2023-04-01T02:26:38;12.4;76.5
78475;SHT31;67766;51.964;5.660;2023-04-01T02:29:09;12.4;76.1
78475;SHT31;67766;51.964;5.660;2023-04-01T02:31:42;12.4;76.4
78475;SHT31;67766;51.964;5.660;2023-04-01T02:34:14;12.4;76.5
78475;SHT31;67766;51.964;5.660;2023-04-01T02:36:44;12.4;76.7
78475;SHT31;67766;51.964;5.660;2023-04-01T02:39:13;12.3;76.7
78475;SHT31;67766;51.964;5.660;2023-04-01T02:41:45;12.3;77.1
78475;SHT31;67766;51.964;5.660;2023-04-01T02:44:15;12.3;76.9
78475;SHT31;67766;51.964;5.660;2023-04-01T02:46:46;12.3;76.6
78475;SHT31;67766;51.964;5.660;2023-04-01T02:49:16;12.3;76.7
78475;SHT31;67766;51.964;5.660;2023-04-01T02:51:46;12.3;76.8
78475;SHT31;67766;51.964;5.660;2023-04-01T02:54:16;12.2;76.9
78475;SHT31;67766;51.964;5.660;2023-04-01T02:56:45;12.2;77.2
78475;SHT31;67766;51.964;5.660;2023-04-01T02:59:15;12.2;77.1
78475;SHT31;67766;51.964;5.660;2023-04-01T03:01:45;12.2;77.0
78475;SHT31;67766;51.964;5.660;2023-04-01T03:04:14;12.2;77.0
78475;SHT31;67766;51.964;5.660;2023-04-01T03:06:44;12.2;77.1
78475;SHT31;67766;51.964;5.660;2023-04-01T03:09:14;12.2;76.6
78475;SHT31;67766;51.964;5.660;2023-04-01T03:11:44;12.2;76.8
78475;SHT31;67766;51.964;5.660;2023-04-01T03:14:13;12.2;76.7
78475;SHT31;67766;51.964;5.660;2023-04-01T03:16:43;12.2;76.8
78475;SHT31;67766;51.964;5.660;2023-04-01T03:19:12;12.2;76.5
78475;SHT31;67766;51.964;5.660;2023-04-01T03:21:42;12.2;76.4
78475;SHT31;67766;51.964;5.660;2023-04-01T03:24:12;12.2;76.6
78475;SHT31;67766;51.964;5.660;2023-04-01T03:26:41;12.2;76.3
78475;SHT31;67766;51.964;5.660;2023-04-01T03:29:11;12.2;76.1
78475;SHT31;67766;51.964;5.660;2023-04-01T03:31:43;12.2;76.1
78475;SHT31;67766;51.964;5.660;2023-04-01T03:34:12;12.2;76.2
78475;SHT31;67766;51.964;5.660;2023-04-01T03:36:42;12.2;76.3
78475;SHT31;67766;51.964;5.660;2023-04-01T03:39:12;12.2;76.3
78475;SHT31;67766;51.964;5.660;2023-04-01T03:41:41;12.2;76.2
78475;SHT31;67766;51.964;5.660;2023-04-01T03:44:11;12.2;76.7
78475;SHT31;67766;51.964;5.660;2023-04-01T03:46:41;12.2;76.7
78475;SHT31;67766;51.964;5.660;2023-04-01T03:49:11;12.2;76.7
78475;SHT31;67766;51.964;5.660;2023-04-01T03:51:43;12.2;76.6
78475;SHT31;67766;51.964;5.660;2023-04-01T03:54:13;12.2;76.4
78475;SHT31;67766;51.964;5.660;2023-04-01T03:56:45;12.2;76.3
78475;SHT31;67766;51.964;5.660;2023-04-01T03:59:16;12.2;76.6
78475;SHT31;67766;51.964;5.660;2023-04-01T04:01:48;12.2;76.4
78475;SHT31;67766;51.964;5.660;2023-04-01T04:04:17;12.2;76.3
78475;SHT31;67766;51.964;5.660;2023-04-01T04:06:47;12.2;76.2
78475;SHT31;67766;51.964;5.660;2023-04-01T04:09:18;12.2;76.6
78475;SHT31;67766;51.964;5.660;2023-04-01T04:11:48;12.2;76.4
78475;SHT31;67766;51.964;5.660;2023-04-01T04:14:18;12.2;76.3
78475;SHT31;67766;51.964;5.660;2023-04-01T04:16:47;12.2;76.3
78475;SHT31;67766;51.964;5.660;2023-04-01T04:19:17;12.2;76.6
78475;SHT31;67766;51.964;5.660;2023-04-01T04:21:47;12.2;76.6
78475;SHT31;67766;51.964;5.660;2023-04-01T04:24:16;12.3;76.5
78475;SHT31;67766;51.964;5.660;2023-04-01T04:26:46;12.3;76.7
78475;SHT31;67766;51.964;5.660;2023-04-01T04:29:15;12.3;76.5
78475;SHT31;67766;51.964;5.660;2023-04-01T04:31:45;12.3;76.4
78475;SHT31;67766;51.964;5.660;2023-04-01T04:34:15;12.4;76.4
78475;SHT31;67766;51.964;5.660;2023-04-01T04:36:47;12.4;76.4
78475;SHT31;67766;51.964;5.660;2023-04-01T04:39:17;12.4;76.2
78475;SHT31;67766;51.964;5.660;2023-04-01T04:41:47;12.5;76.1
78475;SHT31;67766;51.964;5.660;2023-04-01T04:44:16;12.5;75.8
78475;SHT31;67766;51.964;5.660;2023-04-01T04:46:46;12.5;75.7
78475;SHT31;67766;51.964;5.660;2023-04-01T04:49:15;12.6;75.6
78475;SHT31;67766;51.964;5.660;2023-04-01T04:51:46;12.6;75.6
78475;SHT31;67766;51.964;5.660;2023-04-01T04:54:16;12.6;75.8
78475;SHT31;67766;51.964;5.660;2023-04-01T04:56:45;12.6;75.4
78475;SHT31;67766;51.964;5.660;2023-04-01T04:59:15;12.7;75.6
78475;SHT31;67766;51.964;5.660;2023-04-01T05:01:44;12.7;75.4
78475;SHT31;67766;51.964;5.660;2023-04-01T05:04:14;12.7;75.4
78475;SHT31;67766;51.964;5.660;2023-04-01T05:06:44;12.7;75.2
78475;SHT31;67766;51.964;5.660;2023-04-01T05:09:14;12.8;75.4
78475;SHT31;67766;51.964;5.660;2023-04-01T05:11:44;12.8;75.4
78475;SHT31;67766;51.964;5.660;2023-04-01T05:14:16;12.8;75.2
78475;SHT31;67766;51.964;5.660;2023-04-01T05:16:47;12.8;75.0
78475;SHT31;67766;51.964;5.660;2023-04-01T05:19:17;12.9;75.2
78475;SHT31;67766;51.964;5.660;2023-04-01T05:21:47;12.9;75.2
78475;SHT31;67766;51.964;5.660;2023-04-01T05:24:17;12.9;75.0
78475;SHT31;67766;51.964;5.660;2023-04-01T05:26:47;12.9;75.2
78475;SHT31;67766;51.964;5.660;2023-04-01T05:29:17;12.9;75.1
78475;SHT31;67766;51.964;5.660;2023-04-01T05:31:46;13.0;75.1
78475;SHT31;67766;51.964;5.660;2023-04-01T05:34:16;13.0;74.9
78475;SHT31;67766;51.964;5.660;2023-04-01T05:36:46;13.0;74.9
78475;SHT31;67766;51.964;5.660;2023-04-01T05:39:15;13.1;74.8
78475;SHT31;67766;51.964;5.660;2023-04-01T05:41:45;13.1;74.6
78475;SHT31;67766;51.964;5.660;2023-04-01T05:44:15;13.1;75.5
78475;SHT31;67766;51.964;5.660;2023-04-01T05:46:48;13.1;74.9
78475;SHT31;67766;51.964;5.660;2023-04-01T05:49:18;13.1;74.8
78475;SHT31;67766;51.964;5.660;2023-04-01T05:51:48;13.2;74.7
78475;SHT31;67766;51.964;5.660;2023-04-01T05:54:19;13.2;74.8
78475;SHT31;67766;51.964;5.660;2023-04-01T05:56:48;13.2;74.6
78475;SHT31;67766;51.964;5.660;2023-04-01T05:59:18;13.2;74.6
78475;SHT31;67766;51.964;5.660;2023-04-01T06:01:48;13.3;74.4
78475;SHT31;67766;51.964;5.660;2023-04-01T06:04:18;13.3;74.4
78475;SHT31;67766;51.964;5.660;2023-04-01T06:06:47;13.3;74.3
78475;SHT31;67766;51.964;5.660;2023-04-01T06:09:23;13.3;74.3
78475;SHT31;67766;51.964;5.660;2023-04-01T06:12:10;13.3;74.5
78475;SHT31;67766;51.964;5.660;2023-04-01T06:14:49;13.3;74.3
78475;SHT31;67766;51.964;5.660;2023-04-01T06:17:28;13.4;74.1
78475;SHT31;67766;51.964;5.660;2023-04-01T06:20:08;13.4;74.3
78475;SHT31;67766;51.964;5.660;2023-04-01T06:23:41;13.4;74.4
78475;SHT31;67766;51.964;5.660;2023-04-01T06:26:26;13.5;73.8
78475;SHT31;67766;51.964;5.660;2023-04-01T06:29:14;13.5;73.5
78475;SHT31;67766;51.964;5.660;2023-04-01T06:31:59;13.5;73.7
78475;SHT31;67766;51.964;5.660;2023-04-01T06:34:49;13.6;73.7
78475;SHT31;67766;51.964;5.660;2023-04-01T06:37:35;13.6;73.7
78475;SHT31;67766;51.964;5.660;2023-04-01T06:40:21;13.6;73.6
78475;SHT31;67766;51.964;5.660;2023-04-01T06:43:01;13.6;73.5
78475;SHT31;67766;51.964;5.660;2023-04-01T06:45:44;13.6;73.5
78475;SHT31;67766;51.964;5.660;2023-04-01T06:48:43;13.6;73.5
78475;SHT31;67766;51.964;5.660;2023-04-01T06:51:27;13.6;73.4
78475;SHT31;67766;51.964;5.660;2023-04-01T06:54:04;13.6;73.4
78475;SHT31;67766;51.964;5.660;2023-04-01T06:56:37;13.6;73.4
78475;SHT31;67766;51.964;5.660;2023-04-01T06:59:15;13.6;73.5
78475;SHT31;67766;51.964;5.660;2023-04-01T07:01:50;13.6;73.6
78475;SHT31;67766;51.964;5.660;2023-04-01T07:04:25;13.7;73.8
78475;SHT31;67766;51.964;5.660;2023-04-01T07:07:00;13.7;74.4
78475;SHT31;67766;51.964;5.660;2023-04-01T07:09:34;13.7;73.5
78475;SHT31;67766;51.964;5.660;2023-04-01T07:12:15;13.7;73.5
78475;SHT31;67766;51.964;5.660;2023-04-01T07:14:50;13.7;73.3
78475;SHT31;67766;51.964;5.660;2023-04-01T07:17:27;13.7;73.7
78475;SHT31;67766;51.964;5.660;2023-04-01T07:20:03;13.7;73.2
78475;SHT31;67766;51.964;5.660;2023-04-01T07:22:39;13.7;73.0
78475;SHT31;67766;51.964;5.660;2023-04-01T07:25:15;13.7;73.2
78475;SHT31;67766;51.964;5.660;2023-04-01T07:27:48;13.7;73.1
78475;SHT31;67766;51.964;5.660;2023-04-01T07:30:22;13.7;73.2
78475;SHT31;67766;51.964;5.660;2023-04-01T07:33:00;13.7;73.2
78475;SHT31;67766;51.964;5.660;2023-04-01T07:35:41;13.8;73.3
78475;SHT31;67766;51.964;5.660;2023-04-01T07:38:24;13.8;72.7
78475;SHT31;67766;51.964;5.660;2023-04-01T07:41:05;13.8;73.0
78475;SHT31;67766;51.964;5.660;2023-04-01T07:43:56;13.8;72.9
78475;SHT31;67766;51.964;5.660;2023-04-01T07:46:37;13.8;73.0
78475;SHT31;67766;51.964;5.660;2023-04-01T07:49:16;13.8;72.8
78475;SHT31;67766;51.964;5.660;2023-04-01T07:51:52;13.8;72.5
78475;SHT31;67766;51.964;5.660;2023-04-01T07:54:35;13.8;72.5
78475;SHT31;67766;51.964;5.660;2023-04-01T07:57:12;13.8;73.2
78475;SHT31;67766;51.964;5.660;2023-04-01T07:59:52;13.7;72.9
78475;SHT31;67766;51.964;5.660;2023-04-01T08:02:33;13.7;73.1
78475;SHT31;67766;51.964;5.660;2023-04-01T08:05:17;13.7;72.7
78475;SHT31;67766;51.964;5.660;2023-04-01T08:07:58;13.7;72.8
78475;SHT31;67766;51.964;5.660;2023-04-01T08:10:44;13.8;72.8
78475;SHT31;67766;51.964;5.660;2023-04-01T08:13:25;13.8;72.7
78475;SHT31;67766;51.964;5.660;2023-04-01T08:16:03;13.8;73.0
78475;SHT31;67766;51.964;5.660;2023-04-01T08:18:44;13.8;73.6
78475;SHT31;67766;51.964;5.660;2023-04-01T08:21:20;13.8;73.3
78475;SHT31;67766;51.964;5.660;2023-04-01T08:23:52;13.9;73.3
78475;SHT31;67766;51.964;5.660;2023-04-01T08:26:32;13.9;73.0
78475;SHT31;67766;51.964;5.660;2023-04-01T08:29:11;13.9;73.1
78475;SHT31;67766;51.964;5.660;2023-04-01T08:31:47;14.0;73.0
78475;SHT31;67766;51.964;5.660;2023-04-01T08:34:23;14.0;72.8
78475;SHT31;67766;51.964;5.660;2023-04-01T08:36:58;14.0;72.9
78475;SHT31;67766;51.964;5.660;2023-04-01T08:39:34;14.0;72.5
78475;SHT31;67766;51.964;5.660;2023-04-01T08:42:34;14.1;72.9
78475;SHT31;67766;51.964;5.660;2023-04-01T08:45:18;14.1;72.5
78475;SHT31;67766;51.964;5.660;2023-04-01T08:48:25;14.2;72.5
78475;SHT31;67766;51.964;5.660;2023-04-01T08:56:03;14.2;72.8
78475;SHT31;67766;51.964;5.660;2023-04-01T08:59:05;14.2;72.5
78475;SHT31;67766;51.964;5.660;2023-04-01T09:03:18;14.3;72.2
78475;SHT31;67766;51.964;5.660;2023-04-01T09:07:42;14.3;72.0
78475;SHT31;67766;51.964;5.660;2023-04-01T09:10:39;14.3;71.9
78475;SHT31;67766;51.964;5.660;2023-04-01T09:13:27;14.3;71.8
78475;SHT31;67766;51.964;5.660;2023-04-01T09:20:46;14.3;71.9
78475;SHT31;67766;51.964;5.660;2023-04-01T09:24:02;14.4;71.9
78475;SHT31;67766;51.964;5.660;2023-04-01T09:26:47;14.4;72.2
78475;SHT31;67766;51.964;5.660;2023-04-01T09:29:38;14.4;72.0
78475;SHT31;67766;51.964;5.660;2023-04-01T09:32:30;14.4;72.1
78475;SHT31;67766;51.964;5.660;2023-04-01T09:35:18;14.4;72.1
78475;SHT31;67766;51.964;5.660;2023-04-01T09:37:57;14.4;71.7
78475;SHT31;67766;51.964;5.660;2023-04-01T09:40:40;14.5;71.7
78475;SHT31;67766;51.964;5.660;2023-04-01T09:43:23;14.5;71.9
78475;SHT31;67766;51.964;5.660;2023-04-01T09:46:11;14.5;71.7
78475;SHT31;67766;51.964;5.660;2023-04-01T09:50:14;14.5;71.8
78475;SHT31;67766;51.964;5.660;2023-04-01T09:52:54;14.6;71.9
78475;SHT31;67766;51.964;5.660;2023-04-01T09:55:54;14.6;71.8
78475;SHT31;67766;51.964;5.660;2023-04-01T09:58:46;14.6;71.7
78475;SHT31;67766;51.964;5.660;2023-04-01T10:09:39;14.7;71.7
78475;SHT31;67766;51.964;5.660;2023-04-01T10:12:43;14.8;72.1
78475;SHT31;67766;51.964;5.660;2023-04-01T10:19:30;14.9;71.8
78475;SHT31;67766;51.964;5.660;2023-04-01T10:22:10;15.0;71.7
78475;SHT31;67766;51.964;5.660;2023-04-01T10:26:45;15.0;71.2
78475;SHT31;67766;51.964;5.660;2023-04-01T10:29:31;15.1;71.4
78475;SHT31;67766;51.964;5.660;2023-04-01T10:33:59;15.2;72.8
78475;SHT31;67766;51.964;5.660;2023-04-01T10:36:44;15.4;72.9
78475;SHT31;67766;51.964;5.660;2023-04-01T10:48:43;16.0;69.8
78475;SHT31;67766;51.964;5.660;2023-04-01T10:51:27;16.2;69.5
78475;SHT31;67766;51.964;5.660;2023-04-01T10:54:19;16.3;68.4
78475;SHT31;67766;51.964;5.660;2023-04-01T10:56:59;16.3;67.6
78475;SHT31;67766;51.964;5.660;2023-04-01T11:00:35;16.4;67.8
78475;SHT31;67766;51.964;5.660;2023-04-01T11:05:50;16.5;67.3
78475;SHT31;67766;51.964;5.660;2023-04-01T11:09:02;16.5;66.2
78475;SHT31;67766;51.964;5.660;2023-04-01T11:13:41;16.6;65.9
78475;SHT31;67766;51.964;5.660;2023-04-01T11:17:25;16.7;65.7
78475;SHT31;67766;51.964;5.660;2023-04-01T11:22:20;16.7;65.2
78475;SHT31;67766;51.964;5.660;2023-04-01T11:25:44;16.6;64.8
78475;SHT31;67766;51.964;5.660;2023-04-01T11:35:37;16.6;65.5
78475;SHT31;67766;51.964;5.660;2023-04-01T11:38:22;16.6;65.1
78475;SHT31;67766;51.964;5.660;2023-04-01T11:41:02;16.6;65.8
78475;SHT31;67766;51.964;5.660;2023-04-01T11:43:42;16.7;65.9
78475;SHT31;67766;51.964;5.660;2023-04-01T11:46:25;16.7;65.6
78475;SHT31;67766;51.964;5.660;2023-04-01T11:49:11;16.7;65.9
78475;SHT31;67766;51.964;5.660;2023-04-01T11:51:55;16.7;65.8
78475;SHT31;67766;51.964;5.660;2023-04-01T11:54:42;16.8;65.1
78475;SHT31;67766;51.964;5.660;2023-04-01T11:57:34;16.9;64.0
78475;SHT31;67766;51.964;5.660;2023-04-01T12:00:25;16.9;63.3
78475;SHT31;67766;51.964;5.660;2023-04-01T12:03:26;16.9;64.2
78475;SHT31;67766;51.964;5.660;2023-04-01T12:06:05;16.9;64.9
78475;SHT31;67766;51.964;5.660;2023-04-01T12:08:48;16.9;64.8
78475;SHT31;67766;51.964;5.660;2023-04-01T12:11:32;16.8;64.0
78475;SHT31;67766;51.964;5.660;2023-04-01T12:14:14;16.8;64.5
78475;SHT31;67766;51.964;5.660;2023-04-01T12:16:54;16.8;64.7
78475;SHT31;67766;51.964;5.660;2023-04-01T12:19:35;16.7;64.7
78475;SHT31;67766;51.964;5.660;2023-04-01T12:22:27;16.7;65.2
78475;SHT31;67766;51.964;5.660;2023-04-01T12:25:11;16.7;65.1
78475;SHT31;67766;51.964;5.660;2023-04-01T12:27:56;16.7;64.7
78475;SHT31;67766;51.964;5.660;2023-04-01T12:30:43;16.7;64.7
78475;SHT31;67766;51.964;5.660;2023-04-01T12:33:37;16.7;64.5
78475;SHT31;67766;51.964;5.660;2023-04-01T12:36:31;16.7;65.0
78475;SHT31;67766;51.964;5.660;2023-04-01T12:39:27;16.7;64.7
78475;SHT31;67766;51.964;5.660;2023-04-01T12:42:10;16.7;64.2
78475;SHT31;67766;51.964;5.660;2023-04-01T12:45:00;16.7;64.1
78475;SHT31;67766;51.964;5.660;2023-04-01T12:48:25;16.7;64.3
78475;SHT31;67766;51.964;5.660;2023-04-01T12:51:12;16.7;64.8
78475;SHT31;67766;51.964;5.660;2023-04-01T12:54:02;16.7;64.8
78475;SHT31;67766;51.964;5.660;2023-04-01T12:56:45;16.6;64.6
78475;SHT31;67766;51.964;5.660;2023-04-01T12:59:52;16.6;64.9
78475;SHT31;67766;51.964;5.660;2023-04-01T13:02:39;16.6;65.4
78475;SHT31;67766;51.964;5.660;2023-04-01T13:05:38;16.6;64.9
78475;SHT31;67766;51.964;5.660;2023-04-01T13:08:34;16.6;65.2
78475;SHT31;67766;51.964;5.660;2023-04-01T13:11:19;16.6;65.5
78475;SHT31;67766;51.964;5.660;2023-04-01T13:14:22;16.6;66.2
78475;SHT31;67766;51.964;5.660;2023-04-01T13:17:08;16.7;65.5
78475;SHT31;67766;51.964;5.660;2023-04-01T13:19:49;16.8;65.1
78475;SHT31;67766;51.964;5.660;2023-04-01T13:22:28;16.8;64.7
78475;SHT31;67766;51.964;5.660;2023-04-01T13:25:06;16.8;65.2
78475;SHT31;67766;51.964;5.660;2023-04-01T13:27:44;16.8;65.2
78475;SHT31;67766;51.964;5.660;2023-04-01T13:30:24;16.8;64.8
78475;SHT31;67766;51.964;5.660;2023-04-01T13:33:01;16.8;64.8
78475;SHT31;67766;51.964;5.660;2023-04-01T13:35:46;16.8;65.2
78475;SHT31;67766;51.964;5.660;2023-04-01T13:38:38;16.8;64.6
78475;SHT31;67766;51.964;5.660;2023-04-01T13:41:23;16.8;64.5
78475;SHT31;67766;51.964;5.660;2023-04-01T13:44:02;16.7;64.7
78475;SHT31;67766;51.964;5.660;2023-04-01T13:47:04;16.7;64.8
78475;SHT31;67766;51.964;5.660;2023-04-01T13:50:12;16.7;64.8
78475;SHT31;67766;51.964;5.660;2023-04-01T13:53:08;16.6;65.1
78475;SHT31;67766;51.964;5.660;2023-04-01T13:55:55;16.6;65.2
78475;SHT31;67766;51.964;5.660;2023-04-01T13:58:46;16.5;65.3
78475;SHT31;67766;51.964;5.660;2023-04-01T14:01:24;16.5;66.3
78475;SHT31;67766;51.964;5.660;2023-04-01T14:04:49;16.5;66.3
78475;SHT31;67766;51.964;5.660;2023-04-01T14:07:36;16.5;66.5
78475;SHT31;67766;51.964;5.660;2023-04-01T14:10:19;16.4;66.6
78475;SHT31;67766;51.964;5.660;2023-04-01T14:12:58;16.4;66.9
78475;SHT31;67766;51.964;5.660;2023-04-01T14:15:50;16.4;66.6
78475;SHT31;67766;51.964;5.660;2023-04-01T14:18:38;16.4;66.0
78475;SHT31;67766;51.964;5.660;2023-04-01T14:21:17;16.4;66.4
78475;SHT31;67766;51.964;5.660;2023-04-01T14:24:12;16.3;67.4
78475;SHT31;67766;51.964;5.660;2023-04-01T14:27:08;16.3;67.5
78475;SHT31;67766;51.964;5.660;2023-04-01T14:29:49;16.3;67.8
78475;SHT31;67766;51.964;5.660;2023-04-01T14:32:34;16.3;67.1
78475;SHT31;67766;51.964;5.660;2023-04-01T14:35:25;16.3;66.9
78475;SHT31;67766;51.964;5.660;2023-04-01T14:38:06;16.3;66.6
78475;SHT31;67766;51.964;5.660;2023-04-01T14:40:48;16.3;67.1
78475;SHT31;67766;51.964;5.660;2023-04-01T14:43:52;16.3;66.8
78475;SHT31;67766;51.964;5.660;2023-04-01T14:46:52;16.3;67.5
78475;SHT31;67766;51.964;5.660;2023-04-01T14:49:33;16.2;67.1
78475;SHT31;67766;51.964;5.660;2023-04-01T14:52:13;16.2;66.7
78475;SHT31;67766;51.964;5.660;2023-04-01T14:54:50;16.2;66.6
78475;SHT31;67766;51.964;5.660;2023-04-01T14:57:26;16.2;66.8
78475;SHT31;67766;51.964;5.660;2023-04-01T15:00:00;16.2;66.3
78475;SHT31;67766;51.964;5.660;2023-04-01T15:02:37;16.2;66.5
78475;SHT31;67766;51.964;5.660;2023-04-01T15:05:16;16.1;66.8
78475;SHT31;67766;51.964;5.660;2023-04-01T15:08:02;16.1;66.8
78475;SHT31;67766;51.964;5.660;2023-04-01T15:10:46;16.1;67.2
78475;SHT31;67766;51.964;5.660;2023-04-01T15:13:28;16.0;67.2
78475;SHT31;67766;51.964;5.660;2023-04-01T15:16:07;16.0;67.2
78475;SHT31;67766;51.964;5.660;2023-04-01T15:18:47;16.0;67.2
78475;SHT31;67766;51.964;5.660;2023-04-01T15:21:36;15.9;67.3
78475;SHT31;67766;51.964;5.660;2023-04-01T15:24:16;15.9;67.6
78475;SHT31;67766;51.964;5.660;2023-04-01T15:27:04;15.9;68.3
78475;SHT31;67766;51.964;5.660;2023-04-01T15:29:45;15.8;68.6
78475;SHT31;67766;51.964;5.660;2023-04-01T15:32:26;15.8;68.4
78475;SHT31;67766;51.964;5.660;2023-04-01T15:35:07;15.8;68.5
78475;SHT31;67766;51.964;5.660;2023-04-01T15:37:49;15.8;68.2
78475;SHT31;67766;51.964;5.660;2023-04-01T15:40:26;15.8;67.9
78475;SHT31;67766;51.964;5.660;2023-04-01T15:43:17;15.8;67.3
78475;SHT31;67766;51.964;5.660;2023-04-01T15:46:08;15.8;66.8
78475;SHT31;67766;51.964;5.660;2023-04-01T15:48:46;15.7;66.7
78475;SHT31;67766;51.964;5.660;2023-04-01T15:51:36;15.6;66.8
78475;SHT31;67766;51.964;5.660;2023-04-01T15:56:22;15.5;67.5
78475;SHT31;67766;51.964;5.660;2023-04-01T15:59:02;15.4;67.5
78475;SHT31;67766;51.964;5.660;2023-04-01T16:01:46;15.4;67.8
78475;SHT31;67766;51.964;5.660;2023-04-01T16:04:36;15.3;66.9
78475;SHT31;67766;51.964;5.660;2023-04-01T16:07:24;15.3;67.4
78475;SHT31;67766;51.964;5.660;2023-04-01T16:10:13;15.2;67.2
78475;SHT31;67766;51.964;5.660;2023-04-01T16:13:00;15.2;67.4
78475;SHT31;67766;51.964;5.660;2023-04-01T16:15:41;15.1;67.3
78475;SHT31;67766;51.964;5.660;2023-04-01T16:19:15;15.1;67.9
78475;SHT31;67766;51.964;5.660;2023-04-01T16:21:50;15.0;68.3
78475;SHT31;67766;51.964;5.660;2023-04-01T16:24:24;15.0;67.9
78475;SHT31;67766;51.964;5.660;2023-04-01T16:27:04;15.0;68.2
78475;SHT31;67766;51.964;5.660;2023-04-01T16:29:43;14.9;68.3
78475;SHT31;67766;51.964;5.660;2023-04-01T16:32:33;14.9;68.2
78475;SHT31;67766;51.964;5.660;2023-04-01T16:35:20;14.9;67.8
78475;SHT31;67766;51.964;5.660;2023-04-01T16:37:55;14.9;67.9
78475;SHT31;67766;51.964;5.660;2023-04-01T16:40:37;14.9;68.0
78475;SHT31;67766;51.964;5.660;2023-04-01T16:43:12;14.9;67.7
78475;SHT31;67766;51.964;5.660;2023-04-01T16:45:56;14.9;67.7
78475;SHT31;67766;51.964;5.660;2023-04-01T16:48:41;14.8;67.9
78475;SHT31;67766;51.964;5.660;2023-04-01T16:51:14;14.8;68.0
78475;SHT31;67766;51.964;5.660;2023-04-01T16:53:48;14.8;68.3
78475;SHT31;67766;51.964;5.660;2023-04-01T16:56:22;14.8;68.3
78475;SHT31;67766;51.964;5.660;2023-04-01T16:59:01;14.8;67.7
78475;SHT31;67766;51.964;5.660;2023-04-01T17:01:40;14.7;67.5
78475;SHT31;67766;51.964;5.660;2023-04-01T17:04:23;14.7;67.8
78475;SHT31;67766;51.964;5.660;2023-04-01T17:07:04;14.7;67.8
78475;SHT31;67766;51.964;5.660;2023-04-01T17:09:48;14.6;67.5
78475;SHT31;67766;51.964;5.660;2023-04-01T17:12:26;14.6;68.0
78475;SHT31;67766;51.964;5.660;2023-04-01T17:15:04;14.5;67.9
78475;SHT31;67766;51.964;5.660;2023-04-01T17:17:48;14.5;68.1
78475;SHT31;67766;51.964;5.660;2023-04-01T17:20:31;14.5;68.0
78475;SHT31;67766;51.964;5.660;2023-04-01T17:23:14;14.4;67.7
78475;SHT31;67766;51.964;5.660;2023-04-01T17:26:03;14.4;68.3
78475;SHT31;67766;51.964;5.660;2023-04-01T17:28:47;14.4;67.7
78475;SHT31;67766;51.964;5.660;2023-04-01T17:31:41;14.4;67.4
78475;SHT31;67766;51.964;5.660;2023-04-01T17:34:19;14.4;67.3
78475;SHT31;67766;51.964;5.660;2023-04-01T17:37:23;14.4;67.4
78475;SHT31;67766;51.964;5.660;2023-04-01T17:40:14;14.3;67.4
78475;SHT31;67766;51.964;5.660;2023-04-01T17:42:53;14.3;67.1
78475;SHT31;67766;51.964;5.660;2023-04-01T17:45:33;14.3;66.8
78475;SHT31;67766;51.964;5.660;2023-04-01T17:48:21;14.2;67.1
78475;SHT31;67766;51.964;5.660;2023-04-01T17:51:11;14.2;66.9
78475;SHT31;67766;51.964;5.660;2023-04-01T17:53:54;14.1;67.3
78475;SHT31;67766;51.964;5.660;2023-04-01T17:56:36;14.1;67.5
78475;SHT31;67766;51.964;5.660;2023-04-01T17:59:17;14.1;67.2
78475;SHT31;67766;51.964;5.660;2023-04-01T18:01:57;14.1;67.2
78475;SHT31;67766;51.964;5.660;2023-04-01T18:04:41;14.0;67.1
78475;SHT31;67766;51.964;5.660;2023-04-01T18:07:33;14.0;67.3
78475;SHT31;67766;51.964;5.660;2023-04-01T18:10:17;14.0;67.5
78475;SHT31;67766;51.964;5.660;2023-04-01T18:13:11;13.9;66.9
78475;SHT31;67766;51.964;5.660;2023-04-01T18:15:46;13.9;67.2
78475;SHT31;67766;51.964;5.660;2023-04-01T18:18:35;13.8;66.9
78475;SHT31;67766;51.964;5.660;2023-04-01T18:21:15;13.8;66.8
78475;SHT31;67766;51.964;5.660;2023-04-01T18:23:53;13.8;66.4
78475;SHT31;67766;51.964;5.660;2023-04-01T18:26:29;13.7;66.6